createdAt,value
2019-04-30T05:09:35.446Z,4.53
2019-04-30T05:12:04.242Z,4.67
2019-04-30T05:14:33.334Z,4.60
2019-04-30T05:17:01.792Z,4.77
2019-04-30T05:19:30.546Z,6.93
2019-04-30T05:21:59.680Z,5.47
2019-04-30T05:24:28.648Z,5.30
2019-04-30T05:26:58.613Z,5.50
2019-04-30T05:29:25.058Z,5.80
2019-04-30T05:31:54.155Z,5.67
2019-04-30T05:34:22.992Z,9.83
2019-04-30T05:36:51.771Z,10.07
2019-04-30T05:39:20.020Z,11.13
2019-04-30T05:41:49.200Z,11.20
2019-04-30T05:44:18.477Z,8.60
2019-04-30T05:46:46.560Z,10.87
2019-04-30T05:49:15.329Z,12.10
2019-04-30T05:51:53.554Z,11.50
2019-04-30T05:54:12.622Z,12.00
2019-04-30T05:56:42.649Z,11.77
2019-04-30T05:59:09.926Z,12.43
2019-04-30T06:01:39.450Z,10.10
2019-04-30T06:04:06.683Z,9.03
2019-04-30T06:06:35.533Z,11.90
2019-04-30T06:09:14.729Z,12.50
2019-04-30T06:11:43.193Z,11.97
2019-04-30T06:14:21.243Z,6.70
2019-04-30T06:16:53.909Z,6.50
2019-04-30T06:19:22.646Z,5.73
2019-04-30T06:21:51.587Z,10.60
2019-04-30T06:24:20.736Z,12.00
2019-04-30T06:26:49.498Z,11.03
2019-04-30T06:29:18.952Z,9.97
2019-04-30T06:31:48.682Z,12.50
2019-04-30T06:34:16.873Z,7.53
2019-04-30T06:36:53.322Z,12.47
2019-04-30T06:39:14.818Z,12.87
2019-04-30T06:41:43.318Z,13.87
2019-04-30T06:44:12.446Z,8.60
2019-04-30T06:46:40.694Z,13.77
2019-04-30T06:49:09.591Z,13.37
2019-04-30T06:51:38.951Z,10.53
2019-04-30T06:54:06.449Z,12.83
2019-04-30T06:56:35.273Z,13.00
2019-04-30T06:59:03.871Z,11.27
2019-04-30T07:01:32.690Z,10.77
2019-04-30T07:04:01.555Z,11.83
2019-04-30T07:06:36.743Z,12.83
2019-04-30T07:09:03.373Z,8.53
2019-04-30T07:11:35.512Z,11.60
2019-04-30T07:14:03.974Z,7.03
2019-04-30T07:16:33.110Z,13.37
2019-04-30T07:19:02.039Z,11.43
2019-04-30T07:21:31.723Z,10.43
2019-04-30T07:24:00.012Z,11.47
2019-04-30T07:26:29.330Z,10.70
2019-04-30T07:28:59.792Z,9.73
2019-04-30T07:31:26.981Z,10.77
2019-04-30T07:33:55.758Z,10.40
2019-04-30T07:36:42.403Z,9.97
2019-04-30T07:38:56.344Z,11.00
2019-04-30T07:41:21.866Z,7.63
2019-04-30T07:43:51.038Z,11.67
2019-04-30T07:46:20.096Z,6.50
2019-04-30T07:48:50.244Z,6.03
2019-04-30T07:51:20.388Z,6.40
2019-04-30T07:53:45.338Z,6.83
2019-04-30T07:56:25.547Z,7.40
2019-04-30T07:58:42.098Z,13.93
2019-04-30T08:01:10.666Z,7.33
2019-04-30T08:03:45.323Z,11.50
2019-04-30T08:06:13.451Z,15.17
2019-04-30T08:08:41.640Z,14.93
2019-04-30T08:11:22.729Z,16.10
2019-04-30T08:13:40.728Z,14.23
2019-04-30T08:16:09.683Z,10.23
2019-04-30T08:18:36.317Z,15.27
2019-04-30T08:21:04.838Z,12.50
2019-04-30T08:23:37.010Z,13.13
2019-04-30T08:26:02.388Z,8.53
2019-04-30T08:28:30.865Z,8.20
2019-04-30T08:30:59.689Z,8.37
2019-04-30T08:33:29.190Z,9.13
2019-04-30T08:35:56.499Z,8.23
2019-04-30T08:38:25.006Z,9.70
2019-04-30T08:40:58.158Z,10.90
2019-04-30T08:43:22.001Z,11.33
2019-04-30T08:45:50.487Z,13.43
2019-04-30T08:48:19.095Z,13.40
2019-04-30T08:50:49.532Z,12.03
2019-04-30T08:53:26.618Z,12.67
2019-04-30T08:55:44.939Z,11.77
2019-04-30T08:58:15.242Z,11.83
2019-04-30T09:00:41.969Z,11.60
2019-04-30T09:03:10.224Z,12.07
2019-04-30T09:05:43.971Z,13.13
2019-04-30T09:08:12.461Z,11.60
2019-04-30T09:10:41.238Z,12.80
2019-04-30T09:13:09.742Z,11.97
2019-04-30T09:15:40.132Z,10.73
2019-04-30T09:18:10.243Z,15.00
2019-04-30T09:20:35.682Z,12.00
2019-04-30T09:23:04.568Z,13.87
2019-04-30T09:25:33.063Z,13.83
2019-04-30T09:28:04.295Z,11.77
2019-04-30T09:30:30.699Z,12.40
2019-04-30T09:32:59.559Z,12.70
2019-04-30T09:35:31.439Z,13.47
2019-04-30T09:37:59.757Z,13.80
2019-04-30T09:40:25.277Z,13.03
2019-04-30T09:42:53.777Z,13.53
2019-04-30T09:45:22.553Z,13.87
2019-04-30T09:47:51.053Z,13.73
2019-04-30T09:50:19.822Z,13.70
2019-04-30T09:52:49.703Z,10.67
2019-04-30T09:55:19.246Z,10.40
2019-04-30T09:57:46.274Z,10.53
2019-04-30T10:00:15.001Z,8.80
2019-04-30T10:02:43.859Z,7.90
2019-04-30T10:05:13.047Z,9.23
2019-04-30T10:07:40.899Z,10.40
2019-04-30T10:10:11.241Z,8.80
2019-04-30T10:12:39.226Z,9.47
2019-04-30T10:15:06.672Z,8.43
2019-04-30T10:17:38.104Z,8.63
2019-04-30T10:20:07.997Z,10.03
2019-04-30T10:22:39.931Z,7.00
2019-04-30T10:25:05.930Z,7.47
2019-04-30T10:27:34.586Z,7.73
2019-04-30T10:30:03.103Z,7.67
2019-04-30T10:32:31.577Z,7.60
2019-04-30T10:35:00.066Z,7.87
2019-04-30T10:37:28.834Z,8.07
2019-04-30T10:39:57.317Z,8.00
2019-04-30T10:42:25.840Z,7.60
2019-04-30T10:44:54.621Z,7.83
2019-04-30T10:47:22.907Z,6.87
2019-04-30T10:49:51.260Z,6.37
2019-04-30T10:52:19.741Z,7.33
2019-04-30T10:54:49.594Z,6.43
2019-04-30T10:57:18.417Z,6.13
2019-04-30T10:59:45.778Z,5.53
2019-04-30T11:02:14.625Z,5.33
2019-04-30T11:04:43.433Z,6.17
2019-04-30T11:07:12.257Z,6.33
2019-04-30T11:09:40.549Z,7.87
2019-04-30T11:12:09.565Z,9.27
2019-04-30T11:14:37.666Z,8.80
2019-04-30T11:17:06.386Z,9.53
2019-04-30T11:19:34.781Z,9.00
2019-04-30T11:22:03.408Z,8.87
2019-04-30T11:24:38.000Z,8.67
2019-04-30T11:27:01.233Z,9.60
2019-04-30T11:29:30.810Z,9.90
2019-04-30T11:32:06.285Z,9.63
2019-04-30T11:34:34.658Z,8.57
2019-04-30T11:37:02.933Z,9.63
2019-04-30T11:39:31.415Z,9.20
2019-04-30T11:42:00.114Z,9.53
2019-04-30T11:44:31.417Z,9.17
2019-04-30T11:47:09.370Z,9.03
2019-04-30T11:49:36.192Z,9.73
2019-04-30T11:52:04.967Z,9.70
2019-04-30T11:54:34.048Z,8.70
2019-04-30T11:57:02.330Z,9.87
2019-04-30T11:59:30.847Z,7.80
2019-04-30T12:01:59.333Z,8.80
2019-04-30T12:04:29.873Z,10.40
2019-04-30T12:06:56.938Z,9.27
2019-04-30T12:10:01.653Z,8.63
2019-04-30T12:12:30.136Z,9.13
2019-04-30T12:15:01.083Z,8.43
2019-04-30T12:17:27.108Z,7.43
2019-04-30T12:19:56.206Z,7.93
2019-04-30T12:22:24.682Z,7.17
2019-04-30T12:25:02.696Z,6.80
2019-04-30T12:27:21.647Z,6.53
2019-04-30T12:29:50.398Z,6.27
2019-04-30T12:32:19.171Z,6.23
2019-04-30T12:34:47.366Z,6.80
2019-04-30T12:37:15.845Z,5.77
2019-04-30T12:39:44.346Z,5.57
2019-04-30T12:42:12.817Z,5.80
2019-04-30T12:44:41.297Z,6.90
2019-04-30T12:47:10.072Z,6.00
2019-04-30T12:49:46.994Z,6.27
2019-04-30T12:52:19.845Z,7.43
2019-04-30T12:54:54.528Z,8.67
2019-04-30T12:57:29.346Z,6.90
2019-04-30T12:59:55.823Z,8.03
2019-04-30T13:02:24.302Z,7.30
2019-04-30T13:04:52.789Z,6.90
2019-04-30T13:07:21.853Z,6.13
2019-04-30T13:09:50.562Z,7.30
2019-04-30T13:12:18.791Z,6.00
2019-04-30T13:14:53.924Z,6.80
2019-04-30T13:17:15.926Z,5.90
2019-04-30T13:19:44.401Z,4.87
2019-04-30T13:22:12.891Z,5.00
2019-04-30T13:24:41.804Z,5.10
2019-04-30T13:27:10.227Z,6.27
2019-04-30T13:29:44.200Z,5.80
2019-04-30T13:32:12.456Z,6.77
2019-04-30T13:34:47.903Z,7.23
2019-04-30T13:37:16.639Z,6.23
2019-04-30T13:39:53.048Z,7.27
2019-04-30T13:42:23.690Z,7.90
2019-04-30T13:44:51.928Z,8.43
2019-04-30T13:47:20.684Z,5.23
2019-04-30T13:49:49.568Z,8.37
2019-04-30T13:52:17.747Z,5.47
2019-04-30T13:54:46.598Z,6.60
2019-04-30T13:57:14.872Z,8.37
2019-04-30T13:59:43.161Z,7.57
2019-04-30T14:02:11.879Z,6.03
2019-04-30T14:04:45.687Z,8.47
2019-04-30T14:07:23.971Z,5.50
2019-04-30T14:09:52.564Z,7.63
2019-04-30T14:12:21.188Z,8.63
2019-04-30T14:14:50.269Z,7.00
2019-04-30T14:17:19.272Z,7.67
2019-04-30T14:19:47.981Z,5.93
2019-04-30T14:22:16.216Z,6.10
2019-04-30T14:24:44.698Z,5.67
2019-04-30T14:27:13.185Z,7.10
2019-04-30T14:29:41.682Z,8.43
2019-04-30T14:32:10.560Z,6.67
2019-04-30T14:34:39.636Z,7.97
2019-04-30T14:37:07.950Z,8.37
2019-04-30T14:39:36.526Z,9.00
2019-04-30T14:42:05.557Z,5.93
2019-04-30T14:44:33.943Z,10.47
2019-04-30T14:47:06.889Z,7.43
2019-04-30T14:49:43.015Z,4.70
2019-04-30T14:52:11.390Z,9.33
2019-04-30T14:54:55.493Z,6.23
2019-04-30T14:57:32.607Z,7.70
2019-04-30T15:00:08.812Z,7.63
2019-04-30T15:02:41.552Z,7.90
2019-04-30T15:05:10.391Z,6.73
2019-04-30T15:07:39.657Z,5.73
2019-04-30T15:10:07.176Z,6.03
2019-04-30T15:12:35.676Z,6.87
2019-04-30T15:15:05.057Z,5.80
2019-04-30T15:17:34.029Z,6.10
2019-04-30T15:20:02.610Z,6.43
2019-04-30T15:22:31.078Z,5.70
2019-04-30T15:24:59.937Z,4.70
2019-04-30T15:27:28.987Z,5.37
2019-04-30T15:29:57.408Z,5.70
2019-04-30T15:32:25.406Z,5.80
2019-04-30T15:34:54.217Z,5.23
2019-04-30T15:37:23.955Z,5.67
2019-04-30T15:39:52.405Z,6.33
2019-04-30T15:42:21.021Z,6.37
2019-04-30T15:44:49.999Z,6.17
2019-04-30T15:47:19.060Z,5.60
2019-04-30T15:49:47.319Z,6.80
2019-04-30T15:52:16.127Z,6.17
2019-04-30T15:54:44.730Z,6.97
2019-04-30T15:57:13.210Z,6.50
2019-04-30T15:59:43.310Z,5.10
2019-04-30T16:02:54.799Z,6.37
2019-04-30T16:05:35.290Z,7.10
2019-04-30T16:08:09.266Z,8.57
2019-04-30T16:11:44.042Z,8.47
2019-04-30T16:14:25.336Z,5.33
2019-04-30T16:17:07.225Z,8.57
2019-04-30T16:19:36.313Z,6.57
2019-04-30T16:22:04.983Z,7.10
2019-04-30T16:24:33.469Z,8.07
2019-04-30T16:27:01.966Z,7.80
2019-04-30T16:29:30.869Z,7.20
2019-04-30T16:31:59.694Z,6.33
2019-04-30T16:34:30.135Z,6.93
2019-04-30T16:36:56.645Z,7.90
2019-04-30T16:39:25.229Z,5.97
2019-04-30T16:41:54.057Z,5.50
2019-04-30T16:44:22.550Z,6.23
2019-04-30T16:46:51.393Z,6.50
2019-04-30T16:49:20.249Z,4.57
2019-04-30T16:51:50.038Z,5.00
2019-04-30T16:54:18.586Z,5.93
2019-04-30T16:56:45.463Z,5.87
2019-04-30T16:59:14.887Z,5.53
2019-04-30T17:01:56.333Z,5.00
2019-04-30T17:04:19.223Z,5.17
2019-04-30T17:06:50.163Z,5.07
2019-04-30T17:09:23.886Z,5.63
2019-04-30T17:12:02.939Z,5.60
2019-04-30T17:14:31.453Z,4.47
2019-04-30T17:17:00.322Z,4.80
2019-04-30T17:19:29.299Z,5.00
2019-04-30T17:21:57.293Z,5.20
2019-04-30T17:24:26.141Z,5.37
2019-04-30T17:26:54.634Z,4.83
2019-04-30T17:29:23.118Z,4.90
2019-04-30T17:31:51.964Z,5.17
2019-04-30T17:34:20.216Z,4.07
2019-04-30T17:36:49.620Z,4.53
2019-04-30T17:39:17.993Z,4.43
2019-04-30T17:41:46.481Z,3.50
2019-04-30T17:44:14.753Z,4.37
2019-04-30T17:46:43.472Z,5.70
2019-04-30T17:49:11.994Z,4.57
2019-04-30T17:51:40.772Z,4.90
2019-04-30T17:54:15.655Z,4.80
2019-04-30T17:56:43.909Z,4.47
2019-04-30T17:59:12.429Z,4.30
2019-04-30T18:01:42.565Z,4.30
2019-04-30T18:04:11.663Z,4.23
2019-04-30T18:06:40.168Z,4.43
2019-04-30T18:09:10.818Z,4.37
2019-04-30T18:11:37.077Z,4.00
2019-04-30T18:14:05.802Z,3.53
2019-04-30T18:16:34.894Z,6.03
2019-04-30T18:19:10.713Z,5.20
2019-04-30T18:21:45.761Z,4.57
2019-04-30T18:24:22.362Z,4.90
2019-04-30T18:26:55.466Z,4.53
2019-04-30T18:29:24.133Z,5.07
2019-04-30T18:31:52.869Z,4.30
2019-04-30T18:34:21.374Z,5.03
2019-04-30T18:36:51.196Z,4.00
2019-04-30T18:39:18.919Z,3.13
2019-04-30T18:41:47.784Z,4.57
2019-04-30T18:44:16.845Z,3.67
2019-04-30T18:46:45.956Z,3.97
2019-04-30T18:49:14.711Z,4.43
2019-04-30T18:51:43.219Z,4.33
2019-04-30T18:54:12.302Z,4.47
2019-04-30T18:56:41.122Z,3.33
2019-04-30T18:59:09.658Z,4.70
2019-04-30T19:01:38.773Z,4.60
2019-04-30T19:04:09.169Z,4.70
2019-04-30T19:06:35.994Z,4.87
2019-04-30T19:09:40.130Z,4.63
2019-04-30T19:13:10.679Z,4.83
2019-04-30T19:16:18.727Z,4.83
2019-04-30T19:18:33.066Z,5.07
2019-04-30T19:21:02.086Z,4.03
2019-04-30T19:23:30.559Z,5.70
2019-04-30T19:25:59.658Z,5.27
2019-04-30T19:28:28.669Z,4.37
2019-04-30T19:30:58.811Z,6.27
2019-04-30T19:33:25.429Z,5.80
2019-04-30T19:35:53.919Z,6.10
2019-04-30T19:38:22.726Z,6.40
2019-04-30T19:40:51.245Z,6.33
2019-04-30T19:43:19.461Z,6.70
2019-04-30T19:45:48.988Z,7.40
2019-04-30T19:48:17.096Z,8.10
2019-04-30T19:50:45.942Z,7.83
2019-04-30T19:53:14.429Z,3.63
2019-04-30T19:55:42.951Z,10.50
2019-04-30T19:58:24.790Z,14.03
2019-04-30T20:00:39.948Z,16.67
2019-04-30T20:03:08.999Z,3.80
2019-04-30T20:05:39.295Z,9.07
2019-04-30T20:08:05.511Z,14.47
2019-04-30T20:10:34.606Z,6.23
2019-04-30T20:13:03.074Z,7.60
2019-04-30T20:15:31.841Z,17.13
2019-04-30T20:18:01.086Z,8.40
2019-04-30T20:20:29.116Z,16.10
2019-04-30T20:22:58.241Z,18.27
2019-04-30T20:25:27.082Z,6.03
2019-04-30T20:27:55.558Z,19.90
2019-04-30T20:30:24.429Z,10.73
2019-04-30T20:32:53.346Z,19.33
2019-04-30T20:35:21.833Z,15.93
2019-04-30T20:37:55.874Z,18.70
2019-04-30T20:40:25.195Z,10.90
2019-04-30T20:42:53.814Z,17.83
2019-04-30T20:45:22.650Z,9.27
2019-04-30T20:47:51.538Z,22.30
2019-04-30T20:50:20.034Z,19.87
2019-04-30T20:52:49.046Z,9.27
2019-04-30T20:55:16.579Z,19.87
